Time;durP1;ratioP1;P1;durP2;ratioP2;P2;SDS_P1;SDS_P2;PMS_P1;PMS_P2;Temp;Humidity;BMP_temperature;BMP_pressure;BME280_temperature;BME280_humidity;BME280_pressure;Samples;Min_cycle;Max_cycle;Signal;HPM_P1;HPM_P2
2023/10/28 00:01:19;;;;;;;0.43;0.20;;;7.00;99.90;7.40;92501.00;;;;7402137;19;20145;-75
2023/10/28 00:03:54;;;;;;;0.40;0.40;;;6.90;99.90;7.40;92535.00;;;;7402953;19;20148;-72
2023/10/28 00:06:27;;;;;;;1.93;0.30;;;6.90;99.90;7.40;92525.00;;;;7401977;19;20470;-73
2023/10/28 00:08:55;;;;;;;0.10;0.10;;;6.90;99.90;7.50;92538.00;;;;7399011;19;20217;-74
2023/10/28 00:11:29;;;;;;;0.27;0.20;;;6.90;99.90;7.40;92540.00;;;;7403707;19;20157;-74
2023/10/28 00:14:04;;;;;;;0.80;0.20;;;6.90;99.90;7.40;92514.00;;;;7402511;19;20149;-73
2023/10/28 00:16:38;;;;;;;0.23;0.20;;;6.90;99.90;7.30;92522.00;;;;7401490;19;20145;-74
2023/10/28 00:19:07;;;;;;;0.60;0.13;;;6.90;1.00;7.40;92536.00;;;;7401935;19;20136;-74
2023/10/28 00:21:34;;;;;;;0.30;0.30;;;6.90;1.00;7.40;92536.00;;;;7400743;19;20137;-72
2023/10/28 00:24:10;;;;;;;0.23;0.23;;;6.90;1.00;7.40;92534.00;;;;7402697;19;20500;-74
2023/10/28 00:26:37;;;;;;;0.30;0.30;;;6.90;1.00;7.40;92500.00;;;;7401413;19;20156;-75
2023/10/28 00:29:11;;;;;;;0.70;0.30;;;6.90;1.00;7.40;92520.00;;;;7402440;19;20187;-72
2023/10/28 00:31:45;;;;;;;1.80;0.30;;;6.90;1.00;7.30;92546.00;;;;7403089;19;20129;-73
2023/10/28 00:34:13;;;;;;;0.87;0.13;;;6.90;1.00;7.40;92551.00;;;;7401051;19;20141;-75
2023/10/28 00:36:46;;;;;;;0.27;0.27;;;6.90;1.00;7.40;92538.00;;;;7401951;19;20484;-75
2023/10/28 00:39:13;;;;;;;0.20;0.20;;;6.90;1.00;7.40;92516.00;;;;7400272;19;20157;-75
2023/10/28 00:41:47;;;;;;;0.27;0.27;;;6.90;1.00;7.30;92543.00;;;;7401004;19;20141;-75
2023/10/28 00:44:15;;;;;;;0.30;0.30;;;6.90;1.00;7.30;92569.00;;;;7397811;19;20140;-75
2023/10/28 00:46:50;;;;;;;1.10;0.30;;;6.90;1.00;7.40;92558.00;;;;7401429;19;20604;-76
2023/10/28 00:49:17;;;;;;;0.30;0.30;;;6.90;1.00;7.30;92571.00;;;;7401623;19;20153;-76
2023/10/28 00:51:51;;;;;;;0.63;0.40;;;6.90;1.00;7.40;92568.00;;;;7402282;19;20164;-77
2023/10/28 00:54:19;;;;;;;1.43;0.40;;;6.90;1.00;7.30;92573.00;;;;7401390;19;20501;-78
2023/10/28 00:56:54;;;;;;;0.40;0.30;;;6.90;99.90;7.30;92554.00;;;;7401914;19;20592;-76
2023/10/28 00:59:22;;;;;;;1.00;0.40;;;6.90;99.90;7.30;92536.00;;;;7400367;19;20147;-77
2023/10/28 01:01:57;;;;;;;2.60;0.47;;;6.90;99.90;7.30;92549.00;;;;7399794;19;20178;-77
2023/10/28 01:04:38;;;;;;;0.73;0.30;;;6.80;1.00;7.30;92575.00;;;;7400015;19;20164;-77
2023/10/28 01:07:12;;;;;;;1.13;0.47;;;6.80;1.00;7.20;92586.00;;;;7399215;19;20302;-76
2023/10/28 01:09:47;;;;;;;1.93;0.77;;;6.80;99.90;7.20;92582.00;;;;7399979;19;20125;-75
2023/10/28 01:12:23;;;;;;;3.87;0.40;;;6.80;99.90;7.10;92577.00;;;;7399447;19;20156;-77
2023/10/28 01:15:02;;;;;;;3.90;0.70;;;6.70;99.90;7.10;92572.00;;;;7399347;19;20626;-76
2023/10/28 01:17:37;;;;;;;1.40;0.50;;;6.70;99.90;7.00;92566.00;;;;7399516;19;20580;-77
2023/10/28 01:20:11;;;;;;;0.60;0.50;;;6.70;99.90;7.20;92584.00;;;;7400840;19;20579;-79
2023/10/28 01:22:50;;;;;;;2.27;0.80;;;6.70;99.90;7.00;92577.00;;;;7401107;19;20536;-77
2023/10/28 01:25:23;;;;;;;1.97;0.50;;;6.70;99.90;7.00;92578.00;;;;7399450;19;20137;-77
2023/10/28 01:27:51;;;;;;;4.07;0.73;;;6.60;99.90;7.00;92589.00;;;;7397779;19;20156;-75
2023/10/28 01:30:24;;;;;;;2.23;0.47;;;6.70;99.90;7.00;92565.00;;;;7399862;19;20624;-76
2023/10/28 01:32:52;;;;;;;1.90;0.70;;;6.60;99.90;7.00;92590.00;;;;7399988;19;20455;-76
2023/10/28 01:35:20;;;;;;;2.43;0.80;;;6.60;99.90;7.00;92589.00;;;;7400314;19;20157;-76
2023/10/28 01:37:53;;;;;;;2.83;0.63;;;6.60;99.90;7.00;92594.00;;;;7399343;19;20145;-76
2023/10/28 01:40:27;;;;;;;3.57;0.70;;;6.60;99.90;7.00;92594.00;;;;7398626;19;20604;-77
2023/10/28 01:42:55;;;;;;;0.93;0.63;;;6.60;99.90;7.00;92558.00;;;;7399802;19;20129;-79
2023/10/28 01:45:29;;;;;;;2.07;0.93;;;6.60;99.90;7.00;92589.00;;;;7400290;19;20161;-77
2023/10/28 01:48:03;;;;;;;1.10;0.90;;;6.60;99.90;7.00;92599.00;;;;7399763;19;20136;-78
2023/10/28 01:50:37;;;;;;;1.43;1.00;;;6.60;99.90;7.10;92549.00;;;;7399373;19;20860;-79
2023/10/28 01:53:10;;;;;;;2.13;0.93;;;6.60;99.90;7.00;92580.00;;;;7399988;19;20467;-76
2023/10/28 01:55:38;;;;;;;1.90;1.30;;;6.60;99.90;7.00;92550.00;;;;7398980;19;20508;-77
2023/10/28 01:58:06;;;;;;;2.97;1.27;;;6.60;99.90;6.90;92590.00;;;;7398706;19;20181;-77
2023/10/28 02:00:40;;;;;;;5.30;1.43;;;6.60;99.90;7.00;92579.00;;;;7399035;19;20606;-76
2023/10/28 02:03:15;;;;;;;2.73;1.10;;;6.60;99.90;6.90;92575.00;;;;7398816;19;20144;-76
2023/10/28 02:05:56;;;;;;;3.93;1.27;;;6.50;99.90;7.00;92586.00;;;;7397637;19;20144;-76
2023/10/28 02:08:29;;;;;;;8.53;1.70;;;6.60;99.90;6.90;92594.00;;;;7397131;19;20200;-77
2023/10/28 02:11:05;;;;;;;4.57;1.60;;;6.50;99.90;6.90;92598.00;;;;7397594;19;20136;-75
2023/10/28 02:13:32;;;;;;;6.23;1.63;;;6.50;99.90;6.90;92575.00;;;;7397284;19;20676;-77
2023/10/28 02:16:07;;;;;;;6.83;1.60;;;6.50;99.90;7.00;92589.00;;;;7397764;19;20148;-77
2023/10/28 02:18:34;;;;;;;7.60;1.30;;;6.50;1.00;6.90;92570.00;;;;7398110;19;20154;-76
2023/10/28 02:21:07;;;;;;;9.87;1.83;;;6.50;1.00;6.90;92581.00;;;;7397275;19;20153;-76
2023/10/28 02:23:42;;;;;;;10.20;1.73;;;;;6.90;92582.00;;;;7399111;19;20133;-74
2023/10/28 02:26:16;;;;;;;6.90;1.70;;;6.40;1.00;7.00;92592.00;;;;7397958;19;20478;-76
2023/10/28 02:28:43;;;;;;;8.83;1.67;;;6.50;1.00;7.00;92582.00;;;;7397386;19;20616;-76
2023/10/28 02:31:17;;;;;;;7.33;1.60;;;6.50;1.00;7.00;92585.00;;;;7397738;19;20527;-75
2023/10/28 02:33:45;;;;;;;8.33;1.67;;;6.50;1.00;7.00;92592.00;;;;7398738;19;20137;-74
2023/10/28 02:36:18;;;;;;;7.87;1.80;;;6.50;1.00;7.10;92588.00;;;;7396886;19;20147;-76
2023/10/28 02:38:45;;;;;;;7.63;1.73;;;6.60;1.00;7.10;92591.00;;;;7398664;19;20137;-76
2023/10/28 02:41:19;;;;;;;4.67;1.57;;;6.60;18.80;7.00;92571.00;;;;7398224;19;20133;-76
2023/10/28 02:43:54;;;;;;;12.03;2.47;;;6.60;99.90;7.00;92578.00;;;;7396918;19;20639;-76
2023/10/28 02:46:27;;;;;;;6.23;1.83;;;6.60;99.90;7.00;92568.00;;;;7397941;19;20144;-76
2023/10/28 02:49:08;;;;;;;6.00;1.43;;;6.60;99.90;7.00;92593.00;;;;7397273;19;20136;-76
2023/10/28 02:51:35;;;;;;;8.40;1.80;;;6.50;99.90;7.00;92601.00;;;;7398060;19;20136;-75
2023/10/28 02:54:09;;;;;;;7.37;1.53;;;6.50;99.90;7.00;92594.00;;;;7396461;19;20144;-76
2023/10/28 02:56:36;;;;;;;5.27;1.40;;;6.50;99.90;7.00;92583.00;;;;7397008;19;20486;-76
2023/10/28 02:59:11;;;;;;;3.93;1.47;;;6.50;99.90;7.00;92587.00;;;;7397412;19;20132;-74
2023/10/28 03:01:39;;;;;;;4.67;1.60;;;6.50;99.90;7.00;92583.00;;;;7394150;19;20141;-77
2023/10/28 03:04:20;;;;;;;8.53;1.73;;;6.50;99.90;7.00;92593.00;;;;7386918;19;20632;-77
2023/10/28 03:06:54;;;;;;;5.10;1.33;;;6.50;99.90;7.10;92599.00;;;;7393571;19;20124;-75
2023/10/28 03:09:29;;;;;;;6.00;2.20;;;6.50;99.90;7.00;92601.00;;;;7398123;19;20148;-74
2023/10/28 03:11:57;;;;;;;5.13;1.70;;;6.60;99.90;7.00;92615.00;;;;7403771;19;20156;-74
2023/10/28 03:14:30;;;;;;;6.87;1.67;;;6.60;99.90;7.10;92599.00;;;;7402660;19;20137;-76
2023/10/28 03:16:58;;;;;;;7.40;1.67;;;6.60;99.90;7.10;92614.00;;;;7404271;19;20131;-74
2023/10/28 03:19:26;;;;;;;6.43;1.67;;;6.60;99.90;7.00;92617.00;;;;7402772;19;20176;-73
2023/10/28 03:21:59;;;;;;;8.50;2.00;;;6.60;99.90;7.10;92621.00;;;;7403241;19;20151;-75
2023/10/28 03:24:33;;;;;;;7.13;1.97;;;6.60;99.90;7.00;92610.00;;;;7403282;19;20603;-76
2023/10/28 03:27:07;;;;;;;5.27;1.50;;;6.60;99.90;7.00;92597.00;;;;7402579;19;20596;-75
2023/10/28 03:29:42;;;;;;;5.73;1.27;;;6.60;99.90;7.10;92608.00;;;;7400110;19;20489;-74
2023/10/28 03:32:09;;;;;;;5.27;1.60;;;6.60;99.90;7.10;92616.00;;;;7402500;19;20184;-73
2023/10/28 03:34:45;;;;;;;3.13;1.43;;;6.60;1.00;7.10;92607.00;;;;7401658;19;20132;-74
2023/10/28 03:37:13;;;;;;;4.77;1.30;;;6.60;1.00;7.20;92602.00;;;;7402211;19;20545;-73
2023/10/28 03:39:46;;;;;;;4.13;1.13;;;6.60;1.00;7.20;92598.00;;;;7402225;19;20129;-73
2023/10/28 03:42:21;;;;;;;4.53;1.53;;;6.60;1.00;7.10;92580.00;;;;7403437;19;20140;-75
2023/10/28 03:44:54;;;;;;;9.43;1.40;;;6.50;1.00;7.00;92585.00;;;;7398789;19;20886;-75
2023/10/28 03:47:29;;;;;;;6.90;2.03;;;6.50;1.00;7.00;92605.00;;;;7401974;19;20159;-74
2023/10/28 03:50:03;;;;;;;2.43;1.20;;;6.50;1.00;7.00;92585.00;;;;7399986;19;20603;-75
2023/10/28 03:52:32;;;;;;;4.93;1.50;;;6.50;1.00;7.00;92612.00;;;;7402387;19;20145;-74
2023/10/28 03:55:07;;;;;;;8.63;1.27;;;6.50;1.00;7.00;92577.00;;;;7402317;19;20144;-74
2023/10/28 03:57:41;;;;;;;3.00;1.53;;;6.50;1.00;7.00;92585.00;;;;7402084;19;20136;-76
2023/10/28 04:00:16;;;;;;;2.03;1.20;;;6.50;1.00;7.00;92610.00;;;;7403421;19;20303;-75
2023/10/28 04:02:50;;;;;;;5.90;1.43;;;6.60;1.00;7.00;92596.00;;;;7402164;19;20182;-74
2023/10/28 04:05:18;;;;;;;3.20;1.13;;;6.60;1.00;7.00;92617.00;;;;7400525;19;20147;-75
2023/10/28 04:07:51;;;;;;;6.63;1.60;;;6.60;1.00;7.10;92577.00;;;;7402034;19;20600;-74
2023/10/28 04:10:19;;;;;;;3.47;1.17;;;6.60;1.00;6.90;92588.00;;;;7401272;19;20145;-75
2023/10/28 04:12:53;;;;;;;3.27;1.10;;;6.50;1.00;7.00;92620.00;;;;7401231;19;20148;-74
2023/10/28 04:15:22;;;;;;;7.20;1.60;;;6.50;1.00;7.00;92573.00;;;;7401635;19;20145;-75
2023/10/28 04:17:49;;;;;;;5.43;1.40;;;6.50;1.00;7.00;92586.00;;;;7402413;19;20606;-73
2023/10/28 04:20:24;;;;;;;6.77;1.50;;;6.50;1.00;7.00;92597.00;;;;7402778;19;20144;-75
2023/10/28 04:22:52;;;;;;;2.87;1.20;;;6.50;1.00;7.00;92607.00;;;;7402020;19;20145;-74
2023/10/28 04:25:27;;;;;;;2.30;1.10;;;6.50;1.00;7.00;92598.00;;;;7400419;19;20626;-76
2023/10/28 04:27:54;;;;;;;2.70;1.20;;;6.50;1.00;7.10;92575.00;;;;7400964;19;20158;-72
2023/10/28 04:30:27;;;;;;;7.37;1.43;;;6.60;1.00;7.10;92584.00;;;;7401971;19;20808;-73
2023/10/28 04:33:03;;;;;;;6.30;1.40;;;6.50;1.00;7.00;92598.00;;;;7401445;19;20125;-73
2023/10/28 04:35:31;;;;;;;3.20;1.40;;;6.50;99.90;7.00;92612.00;;;;7401443;19;20648;-74
2023/10/28 04:38:04;;;;;;;3.50;1.40;;;6.50;99.90;6.80;92589.00;;;;7401698;19;20135;-73
2023/10/28 04:40:38;;;;;;;7.80;1.70;;;6.40;99.90;6.90;92578.00;;;;7402609;19;20148;-82
2023/10/28 04:43:13;;;;;;;3.37;1.20;;;6.40;99.90;6.80;92604.00;;;;7401556;19;20638;-76
2023/10/28 04:45:50;;;;;;;3.57;1.20;;;6.30;99.90;6.80;92613.00;;;;7403207;19;20188;-80
2023/10/28 04:48:27;;;;;;;2.70;1.20;;;6.20;99.90;6.80;92576.00;;;;7400340;19;20144;-79
2023/10/28 04:51:03;;;;;;;5.60;1.20;;;6.20;99.90;6.70;92603.00;;;;7402705;19;20591;-79
2023/10/28 04:53:30;;;;;;;2.73;0.97;;;6.20;99.90;6.80;92605.00;;;;7400728;19;20140;-76
2023/10/28 04:56:08;;;;;;;2.80;1.00;;;6.20;99.90;6.70;92610.00;;;;7400554;19;20141;-81
2023/10/28 04:58:41;;;;;;;4.57;1.30;;;6.20;1.00;6.70;92585.00;;;;7400838;19;20161;-77
2023/10/28 05:01:08;;;;;;;6.63;1.40;;;6.10;99.90;6.70;92592.00;;;;7402798;19;20151;-79
2023/10/28 05:03:42;;;;;;;6.33;1.53;;;6.20;99.90;6.60;92556.00;;;;7400536;19;20152;-80
2023/10/28 05:06:16;;;;;;;3.80;0.93;;;6.10;99.90;6.60;92596.00;;;;7399408;19;20145;-78
2023/10/28 05:08:50;;;;;;;4.50;1.27;;;6.10;99.90;6.60;92576.00;;;;7398794;19;20125;-79
2023/10/28 05:11:17;;;;;;;4.30;1.27;;;6.00;99.90;6.50;92572.00;;;;7400220;19;20141;-82
2023/10/28 05:13:52;;;;;;;2.90;1.30;;;6.00;99.90;6.50;92592.00;;;;7400528;19;20148;-80
2023/10/28 05:16:19;;;;;;;2.23;1.17;;;5.90;99.90;6.60;92576.00;;;;7400218;19;20169;-77
2023/10/28 05:18:53;;;;;;;6.10;1.13;;;6.00;1.00;6.80;92587.00;;;;7395968;19;20586;-78
2023/10/28 05:21:21;;;;;;;5.00;1.10;;;6.10;1.00;6.60;92590.00;;;;7399378;19;20157;-76
2023/10/28 05:23:55;;;;;;;2.43;1.00;;;6.00;1.00;6.60;92538.00;;;;7399900;19;20616;-78
2023/10/28 05:26:22;;;;;;;2.37;1.20;;;6.10;1.00;6.70;92587.00;;;;7399156;19;20145;-76
2023/10/28 05:28:57;;;;;;;3.53;1.30;;;6.10;1.00;6.60;92556.00;;;;7398189;19;20137;-79
2023/10/28 05:31:27;;;;;;;2.67;0.83;;;6.10;99.90;6.80;92568.00;;;;7397464;19;20138;-76
2023/10/28 05:34:02;;;;;;;5.10;1.40;;;6.10;99.90;6.80;92598.00;;;;7398254;19;20710;-75
2023/10/28 05:36:36;;;;;;;2.83;1.47;;;6.20;99.90;6.70;92585.00;;;;7394094;19;20152;-75
2023/10/28 05:39:04;;;;;;;2.47;1.30;;;6.10;99.90;6.70;92546.00;;;;7395814;19;20149;-78
2023/10/28 05:41:39;;;;;;;5.40;1.80;;;6.10;99.90;6.70;92586.00;;;;7398281;19;20144;-79
2023/10/28 05:44:13;;;;;;;3.17;1.30;;;6.10;99.90;6.70;92606.00;;;;7398555;19;20137;-75
2023/10/28 05:46:40;;;;;;;2.47;1.17;;;6.10;99.90;6.70;92614.00;;;;7398527;19;20667;-76
2023/10/28 05:49:14;;;;;;;6.00;1.67;;;6.10;99.90;6.70;92621.00;;;;7401052;19;20162;-76
2023/10/28 05:51:48;;;;;;;8.07;1.40;;;6.20;99.90;6.80;92628.00;;;;7400486;19;20125;-76
2023/10/28 05:54:23;;;;;;;2.93;1.40;;;6.20;99.90;6.70;92624.00;;;;7397894;19;20144;-76
2023/10/28 05:56:50;;;;;;;4.83;1.63;;;6.20;99.90;6.80;92594.00;;;;7398078;19;20143;-76
2023/10/28 05:59:24;;;;;;;6.37;1.67;;;6.20;99.90;6.80;92604.00;;;;7398764;19;20145;-75
2023/10/28 06:01:54;;;;;;;4.43;1.37;;;6.20;1.00;6.90;92635.00;;;;7396417;19;20172;-75
2023/10/28 06:04:41;;;;;;;4.57;1.17;;;6.20;1.00;7.00;92624.00;;;;7397509;19;20168;-77
2023/10/28 06:07:16;;;;;;;3.60;1.00;;;6.30;1.00;7.00;92638.00;;;;7399446;19;20133;-76
2023/10/28 06:09:51;;;;;;;9.03;1.43;;;6.30;1.00;7.00;92613.00;;;;7398257;19;20143;-75
2023/10/28 06:12:18;;;;;;;2.63;1.70;;;6.30;1.40;7.00;92643.00;;;;7397875;19;20128;-74
2023/10/28 06:14:53;;;;;;;4.93;1.23;;;6.40;99.90;7.10;92661.00;;;;7399311;19;20133;-76
2023/10/28 06:17:26;;;;;;;3.93;1.30;;;6.40;99.90;7.10;92660.00;;;;7399363;19;20137;-76
2023/10/28 06:20:01;;;;;;;2.40;1.20;;;6.50;99.90;7.20;92642.00;;;;7399251;19;20588;-75
2023/10/28 06:22:29;;;;;;;2.80;1.40;;;6.50;99.90;7.30;92674.00;;;;7396422;19;20136;-75
2023/10/28 06:24:56;;;;;;;4.17;1.77;;;6.60;99.90;7.40;92672.00;;;;7397814;19;20165;-77
2023/10/28 06:27:33;;;;;;;8.70;1.40;;;6.70;99.90;7.30;92674.00;;;;7397575;19;20141;-74
2023/10/28 06:30:08;;;;;;;7.20;1.70;;;6.70;99.90;7.30;92689.00;;;;7396359;19;20626;-76
2023/10/28 06:32:42;;;;;;;4.40;1.43;;;6.70;29.60;7.20;92684.00;;;;7397190;19;20196;-76
2023/10/28 06:35:16;;;;;;;7.67;1.50;;;6.70;1.00;7.20;92667.00;;;;7398357;19;20196;-76
2023/10/28 06:37:46;;;;;;;5.20;1.30;;;6.70;1.00;7.20;92679.00;;;;7396841;19;20152;-76
2023/10/28 06:40:21;;;;;;;3.73;1.40;;;6.70;1.00;7.20;92672.00;;;;7397497;19;20161;-75
2023/10/28 06:42:49;;;;;;;4.80;1.67;;;6.70;1.00;7.30;92651.00;;;;7396753;19;20143;-76
2023/10/28 06:45:22;;;;;;;4.07;1.13;;;6.80;1.00;7.30;92674.00;;;;7396919;19;20680;-75
2023/10/28 06:47:56;;;;;;;4.07;1.20;;;6.80;1.00;7.30;92678.00;;;;7397401;19;20616;-73
2023/10/28 06:50:30;;;;;;;3.67;1.30;;;6.80;1.00;7.40;92687.00;;;;7396195;19;20141;-74
2023/10/28 06:53:05;;;;;;;2.50;1.30;;;6.80;1.00;7.40;92683.00;;;;7396783;19;20141;-76
2023/10/28 06:55:38;;;;;;;5.50;1.50;;;6.90;1.00;7.50;92691.00;;;;7396435;19;20160;-75
2023/10/28 06:58:13;;;;;;;3.30;1.20;;;6.90;1.00;7.50;92696.00;;;;7396881;19;20136;-75
2023/10/28 07:00:48;;;;;;;1.80;1.00;;;6.90;1.00;7.50;92672.00;;;;7397412;19;20137;-74
2023/10/28 07:03:23;;;;;;;7.47;1.63;;;6.90;1.00;7.60;92653.00;;;;7397638;19;20478;-75
2023/10/28 07:06:14;;;;;;;2.13;1.10;;;7.00;1.00;7.30;92694.00;;;;7395843;19;20156;-75
2023/10/28 07:08:48;;;;;;;4.60;1.30;;;7.00;1.00;7.50;92677.00;;;;7395664;19;20628;-76
2023/10/28 07:11:21;;;;;;;6.80;1.50;;;7.00;1.00;7.80;92682.00;;;;7397238;19;20137;-76
2023/10/28 07:13:55;;;;;;;9.37;2.03;;;7.00;1.00;7.90;92677.00;;;;7395897;19;20135;-76
2023/10/28 07:16:23;;;;;;;7.57;1.50;;;7.00;1.00;7.90;92695.00;;;;7395521;19;20148;-74
2023/10/28 07:18:56;;;;;;;3.80;1.30;;;7.10;1.00;8.00;92679.00;;;;7395837;19;20144;-74
2023/10/28 07:21:24;;;;;;;5.00;1.40;;;7.20;1.00;8.10;92701.00;;;;7395661;19;20141;-75
2023/10/28 07:23:58;;;;;;;3.60;1.47;;;7.30;1.00;8.30;92688.00;;;;7394625;19;20161;-75
2023/10/28 07:26:32;;;;;;;10.60;1.60;;;7.40;1.00;8.40;92706.00;;;;7393889;19;20546;-76
2023/10/28 07:29:08;;;;;;;3.97;1.27;;;7.50;1.00;8.50;92700.00;;;;7393421;19;20147;-76
2023/10/28 07:31:41;;;;;;;4.40;1.43;;;7.60;1.00;8.40;92720.00;;;;7391567;19;20155;-77
2023/10/28 07:34:09;;;;;;;4.67;1.67;;;7.70;1.00;8.60;92721.00;;;;7395659;19;20137;-76
2023/10/28 07:36:42;;;;;;;4.70;1.63;;;7.80;1.00;8.80;92727.00;;;;7395389;19;20156;-75
2023/10/28 07:39:16;;;;;;;5.70;1.40;;;8.00;99.90;9.30;92728.00;;;;7394195;19;20503;-75
2023/10/28 07:41:44;;;;;;;8.17;1.50;;;8.30;99.90;9.70;92724.00;;;;7393063;19;20149;-74
2023/10/28 07:44:17;;;;;;;6.05;1.58;;;8.60;1.00;9.70;92719.00;;;;7394675;19;20127;-75
2023/10/28 07:46:46;;;;;;;3.72;1.42;;;8.90;99.90;9.90;92716.00;;;;7394319;19;20160;-74
2023/10/28 07:49:19;;;;;;;4.45;1.35;;;9.00;99.90;9.60;92727.00;;;;7394014;19;20132;-74
2023/10/28 07:51:47;;;;;;;6.47;1.45;;;9.10;1.00;9.60;92709.00;;;;7394323;19;20149;-74
2023/10/28 07:54:21;;;;;;;2.22;1.38;;;9.20;7.90;9.40;92733.00;;;;7398993;19;20143;-74
2023/10/28 07:56:48;;;;;;;3.60;1.35;;;9.10;1.00;9.40;92729.00;;;;7399839;19;20219;-75
2023/10/28 07:59:23;;;;;;;1.65;1.00;;;9.00;1.00;9.50;92724.00;;;;7402538;19;20144;-76
2023/10/28 08:01:58;;;;;;;3.58;1.58;;;9.00;1.00;10.00;92706.00;;;;7399014;19;20198;-76
2023/10/28 08:04:27;;;;;;;3.42;0.95;;;9.20;1.00;10.60;92745.00;;;;7400820;19;20197;-75
2023/10/28 08:07:07;;;;;;;3.78;1.20;;;9.60;1.00;11.00;92735.00;;;;7399488;19;20460;-74
2023/10/28 08:09:35;;;;;;;4.20;1.45;;;9.90;99.90;10.40;92748.00;;;;7395676;19;20441;-74
2023/10/28 08:12:09;;;;;;;5.80;0.98;;;10.00;1.00;10.10;92747.00;;;;7389553;19;20512;-76
2023/10/28 08:14:36;;;;;;;3.55;1.30;;;10.00;1.00;10.20;92742.00;;;;7389204;19;20125;-74
2023/10/28 08:17:12;;;;;;;8.15;1.40;;;9.90;1.00;10.10;92745.00;;;;7390451;19;20129;-74
2023/10/28 08:19:46;;;;;;;4.20;1.27;;;9.90;1.00;10.60;92733.00;;;;7388742;19;20156;-75
2023/10/28 08:22:19;;;;;;;9.85;1.85;;;9.90;1.00;11.10;92755.00;;;;7388945;19;20151;-76
2023/10/28 08:24:54;;;;;;;7.40;1.95;;;10.20;1.00;11.40;92756.00;;;;7386769;19;20239;-73
2023/10/28 08:27:28;;;;;;;5.03;1.58;;;10.60;1.00;11.80;92741.00;;;;7387801;19;20136;-73
2023/10/28 08:30:03;;;;;;;3.80;1.40;;;10.80;99.90;12.00;92758.00;;;;7386813;19;20246;-74
2023/10/28 08:32:38;;;;;;;4.03;1.00;;;11.10;99.90;12.00;92715.00;;;;7387815;19;20586;-77
2023/10/28 08:35:12;;;;;;;4.70;1.30;;;11.20;1.00;11.50;92750.00;;;;7387881;19;20164;-75
2023/10/28 08:37:48;;;;;;;6.03;1.75;;;11.30;1.00;11.60;92735.00;;;;7387576;19;20136;-74
2023/10/28 08:40:16;;;;;;;3.95;1.35;;;11.10;1.00;11.80;92755.00;;;;7388585;19;20632;-74
2023/10/28 08:42:50;;;;;;;5.60;1.20;;;11.20;1.00;11.90;92759.00;;;;7386950;19;20148;-76
2023/10/28 08:45:26;;;;;;;4.93;1.17;;;11.10;1.00;11.90;92772.00;;;;7385464;19;24104;-75
2023/10/28 08:48:02;;;;;;;3.20;1.35;;;11.30;1.00;11.40;92767.00;;;;7387595;19;20176;-75
2023/10/28 08:50:39;;;;;;;3.22;1.23;;;11.30;99.90;11.60;92775.00;;;;7387040;19;20147;-75
2023/10/28 08:53:17;;;;;;;3.10;1.00;;;11.30;1.00;11.70;92755.00;;;;7389171;19;20607;-75
2023/10/28 08:55:53;;;;;;;4.43;1.25;;;11.30;99.90;12.00;92740.00;;;;7388572;19;20135;-76
2023/10/28 08:58:21;;;;;;;3.15;1.27;;;11.30;99.90;12.50;92772.00;;;;7387569;19;20153;-76
2023/10/28 09:00:59;;;;;;;3.35;1.13;;;;;12.10;92756.00;;;;7382890;19;20256;-74
2023/10/28 09:03:30;;;;;;;4.88;1.42;;;;;12.90;92766.00;;;;7387835;19;20133;-76
2023/10/28 09:06:19;;;;;;;2.88;1.33;;;;;12.80;92777.00;;;;7383970;19;20208;-75
2023/10/28 09:08:53;;;;;;;3.95;1.50;;;;;12.30;92777.00;;;;7387433;19;20125;-75
2023/10/28 09:11:29;;;;;;;3.40;1.10;;;;;12.30;92783.00;;;;7386467;19;20183;-77
2023/10/28 09:14:07;;;;;;;4.20;1.10;;;;;11.80;92798.00;;;;7384652;19;20132;-73
2023/10/28 09:16:41;;;;;;;3.55;0.88;;;;;11.40;92796.00;;;;7386296;19;20732;-76
2023/10/28 09:19:19;;;;;;;2.85;0.90;;;;;11.10;92790.00;;;;7385631;19;20133;-77
2023/10/28 09:21:55;;;;;;;3.35;1.30;;;;;11.30;92794.00;;;;7386696;19;20128;-76
2023/10/28 09:24:23;;;;;;;12.60;1.55;;;;;11.10;92785.00;;;;7384879;19;20596;-77
2023/10/28 09:26:57;;;;;;;2.85;1.27;;;;;11.40;92783.00;;;;7383964;19;20480;-75
2023/10/28 09:29:41;;;;;;;3.83;1.10;;;;;11.50;92784.00;;;;7387070;19;20582;-74
2023/10/28 09:32:22;;;;;;;2.88;1.35;;;;;11.60;92775.00;;;;7386291;19;20488;-76
2023/10/28 09:34:57;;;;;;;4.63;1.63;;;;;12.00;92784.00;;;;7384823;19;20621;-75
2023/10/28 09:37:25;;;;;;;4.03;1.52;;;;;12.20;92769.00;;;;7386274;19;20153;-74
2023/10/28 09:39:55;;;;;;;4.13;1.42;;;;;12.80;92775.00;;;;7384404;19;20580;-74
2023/10/28 09:42:36;;;;;;;2.60;1.23;;;;;13.10;92776.00;;;;7384960;19;20136;-75
2023/10/28 09:45:10;;;;;;;3.13;1.08;;;;;13.30;92779.00;;;;7384872;19;21282;-75
2023/10/28 09:47:47;;;;;;;4.22;1.13;;;;;13.80;92777.00;;;;7383697;19;20136;-73
2023/10/28 09:50:25;;;;;;;2.38;1.08;;;;;13.90;92784.00;;;;7384159;19;20145;-77
2023/10/28 09:52:54;;;;;;;3.22;1.20;;;;;13.50;92782.00;;;;7388402;19;20129;-76
2023/10/28 09:55:34;;;;;;;2.35;1.05;;;;;13.10;92781.00;;;;7384747;19;20612;-76
2023/10/28 09:58:22;;;;;;;2.70;0.98;;;;;13.30;92788.00;;;;7385026;19;20544;-77
2023/10/28 10:01:19;;;;;;;3.10;1.20;;;;;13.30;92789.00;;;;7384957;19;20169;-75
2023/10/28 10:04:07;;;;;;;5.13;1.10;;;;;13.10;92792.00;;;;7386685;19;20561;-77
2023/10/28 10:06:47;;;;;;;4.65;1.38;;;;;13.30;92793.00;;;;7387096;19;20176;-76
2023/10/28 10:09:20;;;;;;;4.38;1.13;;;;;13.20;92789.00;;;;7385543;19;20163;-80
2023/10/28 10:12:07;;;;;;;2.90;1.08;;;;;13.40;92792.00;;;;7393752;19;20140;-76
2023/10/28 10:14:46;;;;;;;5.63;1.17;;;;;12.90;92789.00;;;;7390521;19;20155;-74
2023/10/28 10:17:44;;;;;;;6.60;1.60;;;;;13.10;92792.00;;;;7386035;19;20148;-75
2023/10/28 10:20:12;;;;;;;4.75;1.33;;;;;13.00;92792.00;;;;7390966;19;20173;-77
2023/10/28 10:22:58;;;;;;;4.45;1.30;;;;;12.80;92791.00;;;;7393752;19;20137;-75
2023/10/28 10:25:36;;;;;;;3.78;1.25;;;;;13.20;92788.00;;;;7391911;19;20136;-78
2023/10/28 10:28:23;;;;;;;3.75;1.50;;;;;13.50;92787.00;;;;7391434;19;20607;-76
2023/10/28 10:31:07;;;;;;;4.57;1.85;;;;;13.30;92794.00;;;;7388424;19;20137;-75
2023/10/28 10:33:41;;;;;;;3.22;1.17;;;;;13.70;92795.00;;;;7393107;19;20125;-76
2023/10/28 10:36:19;;;;;;;6.07;1.45;;;;;13.50;92787.00;;;;7388936;19;20149;-76
2023/10/28 10:38:54;;;;;;;8.68;1.85;;;;;13.30;92801.00;;;;7387417;19;20501;-77
2023/10/28 10:41:30;;;;;;;6.95;1.30;;;;;13.00;92797.00;;;;7386990;19;20583;-74
2023/10/28 10:44:23;;;;;;;6.43;1.67;;;;;13.00;92805.00;;;;7388495;19;20149;-75
2023/10/28 10:46:53;;;;;;;2.65;1.48;;;;;12.80;92815.00;;;;7386023;19;20144;-76
2023/10/28 10:49:30;;;;;;;4.28;1.25;;;;;12.70;92821.00;;;;7388679;19;20448;-75
2023/10/28 10:52:00;;;;;;;5.53;1.42;;;;;12.50;92822.00;;;;7386611;19;20631;-76
2023/10/28 10:54:38;;;;;;;4.75;1.70;;;;;12.20;92827.00;;;;7385591;19;20132;-78
2023/10/28 10:57:08;;;;;;;5.53;1.70;;;;;12.10;92821.00;;;;7384499;19;20616;-76
2023/10/28 10:59:42;;;;;;;6.75;1.80;;;;;12.10;92814.00;;;;7383547;19;20144;-75
2023/10/28 11:02:17;;;;;;;7.20;1.67;;;;;12.00;92817.00;;;;7383862;19;20190;-77
2023/10/28 11:04:58;;;;;;;7.63;1.55;;;;;12.00;92822.00;;;;7383593;19;20237;-74
2023/10/28 11:07:34;;;;;;;6.45;1.52;;;;;11.90;92821.00;;;;7383945;19;20492;-78
2023/10/28 11:10:08;;;;;;;6.55;2.15;;;;;11.90;92812.00;;;;7383397;19;20139;-77
2023/10/28 11:12:37;;;;;;;10.20;2.28;;;;;11.50;92826.00;;;;7384701;19;20596;-76
2023/10/28 11:15:11;;;;;;;9.10;2.15;;;;;11.40;92832.00;;;;7385052;19;20131;-74
2023/10/28 11:17:40;;;;;;;7.72;1.80;;;;;11.40;92820.00;;;;7383350;19;20145;-74
2023/10/28 11:20:19;;;;;;;11.45;5.78;;;;;11.50;92821.00;;;;7382347;19;20147;-75
2023/10/28 11:22:47;;;;;;;6.13;1.80;;;;;11.20;92818.00;;;;7383791;19;20445;-77
2023/10/28 11:25:31;;;;;;;5.75;2.50;;;;;11.30;92816.00;;;;7383359;19;20619;-76
2023/10/28 11:28:10;;;;;;;10.80;1.98;;;;;11.40;92823.00;;;;7383069;19;20484;-77
2023/10/28 11:30:38;;;;;;;11.73;4.18;;;;;11.40;92815.00;;;;7389926;19;20129;-75
2023/10/28 11:33:14;;;;;;;7.25;2.05;;;;;11.20;92814.00;;;;7387989;19;20169;-76
2023/10/28 11:35:42;;;;;;;5.80;1.67;;;;;11.30;92816.00;;;;7389274;19;20497;-77
2023/10/28 11:38:10;;;;;;;8.38;2.08;;;;;11.20;92825.00;;;;7389011;19;20132;-76
2023/10/28 11:40:44;;;;;;;6.38;1.77;;;;;11.30;92805.00;;;;7390470;19;20125;-74
2023/10/28 11:43:18;;;;;;;8.15;1.98;;;;;11.30;92817.00;;;;7389701;19;20150;-75
2023/10/28 11:45:52;;;;;;;7.13;1.85;;;;;11.10;92814.00;;;;7389279;19;20121;-76
2023/10/28 11:48:29;;;;;;;10.05;1.90;;;;;11.00;92817.00;;;;7386757;19;20160;-76
2023/10/28 11:50:56;;;;;;;8.10;2.10;;;;;11.10;92824.00;;;;7387923;19;20597;-77
2023/10/28 11:53:25;;;;;;;6.10;1.92;;;;;10.80;92820.00;;;;7388873;19;20140;-76
2023/10/28 11:55:59;;;;;;;9.82;2.05;;;;;10.70;92823.00;;;;7390828;19;20208;-75